createdAt,value
2022-12-29T00:01:51.636Z,0.73
2022-12-29T00:04:22.459Z,2.03
2022-12-29T00:06:52.726Z,0.68
2022-12-29T00:09:23.576Z,0.50
2022-12-29T00:11:53.859Z,0.32
2022-12-29T00:14:41.957Z,1.77
2022-12-29T00:17:12.583Z,1.13
2022-12-29T00:20:00.581Z,0.82
2022-12-29T00:22:48.611Z,1.77
2022-12-29T00:25:37.257Z,1.02
2022-12-29T00:28:28.218Z,1.77
2022-12-29T00:31:21.335Z,0.57
2022-12-29T00:34:09.708Z,1.75
2022-12-29T00:36:43.848Z,0.30
2022-12-29T00:39:37.453Z,2.70
2022-12-29T00:42:29.859Z,0.70
2022-12-29T00:45:00.945Z,1.05
2022-12-29T00:47:34.077Z,0.47
2022-12-29T00:50:04.530Z,1.40
2022-12-29T00:52:34.831Z,0.50
2022-12-29T00:55:05.070Z,2.25
2022-12-29T00:57:35.280Z,0.77
2022-12-29T01:00:05.965Z,2.53
2022-12-29T01:02:37.449Z,3.08
2022-12-29T01:05:07.935Z,2.45
2022-12-29T01:07:38.163Z,0.93
2022-12-29T01:10:14.461Z,3.60
2022-12-29T01:12:44.898Z,1.15
2022-12-29T01:15:17.155Z,1.30
2022-12-29T01:17:48.767Z,1.33
2022-12-29T01:20:19.128Z,4.20
2022-12-29T01:22:49.959Z,1.40
2022-12-29T01:25:20.301Z,3.92
2022-12-29T01:27:50.698Z,4.57
2022-12-29T01:30:21.042Z,3.63
2022-12-29T01:32:51.457Z,1.92
2022-12-29T01:35:21.776Z,3.75
2022-12-29T01:37:52.024Z,3.05
2022-12-29T01:40:22.513Z,2.13
2022-12-29T01:42:52.979Z,4.78
2022-12-29T01:45:23.220Z,4.28
2022-12-29T01:48:02.453Z,2.55
2022-12-29T01:50:51.626Z,1.38
2022-12-29T01:53:28.938Z,2.78
2022-12-29T01:56:07.527Z,4.00
2022-12-29T01:58:45.016Z,3.03
2022-12-29T02:01:15.614Z,3.42
2022-12-29T02:03:46.125Z,2.05
2022-12-29T02:06:28.438Z,0.85
2022-12-29T02:09:00.642Z,3.80
2022-12-29T02:11:33.160Z,2.83
2022-12-29T02:14:03.982Z,1.70
2022-12-29T02:16:39.947Z,3.13
2022-12-29T02:19:34.346Z,1.77
2022-12-29T02:22:13.488Z,1.75
2022-12-29T02:25:05.504Z,1.70
2022-12-29T02:27:47.867Z,0.73
2022-12-29T02:30:39.813Z,2.05
2022-12-29T02:33:46.372Z,1.88
2022-12-29T02:36:41.420Z,2.05
2022-12-29T02:39:21.059Z,2.05
2022-12-29T02:41:57.376Z,1.13
2022-12-29T02:44:30.317Z,1.02
2022-12-29T02:47:15.309Z,1.23
2022-12-29T02:50:31.421Z,2.03
2022-12-29T02:53:18.599Z,2.22
2022-12-29T02:55:55.876Z,1.73
2022-12-29T02:58:27.370Z,2.47
2022-12-29T03:01:00.709Z,3.75
2022-12-29T03:03:58.868Z,1.55
2022-12-29T03:06:54.571Z,2.60
2022-12-29T03:09:37.592Z,1.95
2022-12-29T03:12:51.068Z,1.50
2022-12-29T03:16:04.877Z,0.77
2022-12-29T03:18:54.619Z,3.17
2022-12-29T03:22:05.965Z,2.08
2022-12-29T03:24:50.899Z,1.20
2022-12-29T03:27:31.026Z,3.20
2022-12-29T03:30:06.136Z,2.85
2022-12-29T03:32:45.424Z,0.77
2022-12-29T03:35:19.037Z,2.05
2022-12-29T03:38:16.039Z,3.45
2022-12-29T03:41:12.194Z,1.95
2022-12-29T03:43:42.614Z,1.48
2022-12-29T03:46:13.045Z,2.72
2022-12-29T03:48:43.400Z,6.00
2022-12-29T03:51:13.669Z,1.50
2022-12-29T03:53:44.892Z,1.85
2022-12-29T03:56:15.640Z,1.10
2022-12-29T03:58:46.136Z,0.77
2022-12-29T04:01:16.609Z,0.90
2022-12-29T04:03:48.747Z,1.17
2022-12-29T04:06:19.391Z,1.55
2022-12-29T04:08:49.617Z,3.15
2022-12-29T04:11:20.025Z,2.05
2022-12-29T04:13:50.259Z,2.25
2022-12-29T04:16:20.802Z,1.63
2022-12-29T04:18:51.159Z,1.02
2022-12-29T04:21:21.423Z,1.65
2022-12-29T04:23:51.626Z,2.03
2022-12-29T04:26:22.096Z,2.28
2022-12-29T04:28:52.321Z,1.50
2022-12-29T04:31:22.591Z,1.73
2022-12-29T04:33:52.810Z,1.17
2022-12-29T04:36:27.766Z,1.92
2022-12-29T04:39:00.140Z,2.10
2022-12-29T04:41:30.784Z,1.25
2022-12-29T04:44:01.203Z,1.42
2022-12-29T04:46:31.487Z,1.70
2022-12-29T04:49:03.363Z,1.10
2022-12-29T04:51:33.606Z,3.92
2022-12-29T04:54:03.957Z,2.13
2022-12-29T04:56:34.291Z,1.48
2022-12-29T04:59:04.646Z,2.67
2022-12-29T05:01:34.977Z,5.22
2022-12-29T05:04:05.439Z,2.15
2022-12-29T05:06:35.759Z,1.48
2022-12-29T05:09:06.451Z,5.05
2022-12-29T05:11:39.402Z,4.05
2022-12-29T05:14:10.162Z,3.28
2022-12-29T05:16:40.454Z,3.65
2022-12-29T05:19:10.723Z,5.85
2022-12-29T05:21:40.908Z,3.80
2022-12-29T05:24:11.692Z,6.28
2022-12-29T05:26:41.975Z,6.63
2022-12-29T05:29:12.504Z,3.80
2022-12-29T05:31:42.781Z,7.68
2022-12-29T05:34:15.503Z,5.13
2022-12-29T05:36:45.721Z,4.18
2022-12-29T05:39:16.248Z,3.00
2022-12-29T05:41:46.490Z,3.58
2022-12-29T05:44:16.947Z,5.30
2022-12-29T05:46:48.799Z,3.67
2022-12-29T05:49:20.011Z,8.02
2022-12-29T05:51:50.275Z,5.90
2022-12-29T05:54:20.785Z,10.07
2022-12-29T05:56:51.156Z,6.80
2022-12-29T05:59:21.545Z,7.80
2022-12-29T06:01:52.178Z,7.78
2022-12-29T06:04:23.043Z,4.05
2022-12-29T06:06:53.367Z,5.15
2022-12-29T06:09:24.143Z,5.63
2022-12-29T06:11:54.731Z,4.72
2022-12-29T06:14:25.118Z,3.85
2022-12-29T06:16:55.328Z,7.85
2022-12-29T06:19:25.797Z,6.05
2022-12-29T06:21:56.345Z,4.57
2022-12-29T06:24:26.719Z,4.05
2022-12-29T06:26:56.957Z,6.80
2022-12-29T06:29:27.264Z,4.00
2022-12-29T06:32:00.577Z,6.13
2022-12-29T06:34:30.976Z,6.53
2022-12-29T06:37:01.277Z,5.00
2022-12-29T06:39:35.636Z,4.07
2022-12-29T06:42:06.438Z,6.00
2022-12-29T06:44:36.919Z,4.13
2022-12-29T06:47:07.237Z,4.55
2022-12-29T06:49:37.441Z,4.05
2022-12-29T06:52:12.733Z,3.22
2022-12-29T06:54:43.733Z,5.03
2022-12-29T06:57:13.966Z,2.75
2022-12-29T06:59:44.504Z,4.05
2022-12-29T07:02:17.415Z,5.40
2022-12-29T07:04:47.929Z,3.67
2022-12-29T07:07:18.693Z,5.47
2022-12-29T07:09:49.570Z,3.30
2022-12-29T07:12:19.840Z,5.57
2022-12-29T07:14:50.636Z,3.47
2022-12-29T07:17:21.269Z,4.28
2022-12-29T07:19:51.596Z,4.63
2022-12-29T07:22:21.953Z,2.90
2022-12-29T07:24:52.416Z,5.03
2022-12-29T07:27:22.813Z,3.30
2022-12-29T07:29:53.041Z,3.95
2022-12-29T07:32:23.521Z,3.50
2022-12-29T07:34:54.044Z,4.18
2022-12-29T07:37:24.529Z,4.97
2022-12-29T07:39:55.020Z,3.33
2022-12-29T07:42:25.383Z,8.80
2022-12-29T07:44:56.015Z,2.38
2022-12-29T07:47:26.776Z,3.70
2022-12-29T07:49:57.271Z,3.50
2022-12-29T07:52:27.562Z,4.60
2022-12-29T07:54:57.980Z,3.13
2022-12-29T07:57:31.823Z,5.38
2022-12-29T08:00:02.676Z,7.60
2022-12-29T08:02:32.935Z,3.42
2022-12-29T08:05:03.847Z,2.63
2022-12-29T08:07:34.911Z,4.45
2022-12-29T08:10:06.281Z,4.07
2022-12-29T08:12:36.805Z,3.65
2022-12-29T08:15:08.424Z,3.67
2022-12-29T08:17:39.223Z,3.55
2022-12-29T08:20:10.450Z,3.03
2022-12-29T08:22:41.450Z,2.55
2022-12-29T08:25:12.865Z,3.95
2022-12-29T08:27:43.985Z,2.55
2022-12-29T08:30:15.735Z,3.33
2022-12-29T08:32:46.612Z,3.03
2022-12-29T08:35:17.368Z,2.58
2022-12-29T08:37:48.020Z,3.63
2022-12-29T08:40:18.512Z,3.17
2022-12-29T08:42:49.535Z,2.45
2022-12-29T08:45:20.543Z,2.25
2022-12-29T08:47:51.219Z,2.95
2022-12-29T08:50:21.509Z,2.92
2022-12-29T08:52:51.761Z,4.10
2022-12-29T08:55:22.080Z,3.15
2022-12-29T08:57:52.295Z,3.75
2022-12-29T09:00:23.365Z,2.70
2022-12-29T09:02:53.695Z,2.55
2022-12-29T09:05:25.588Z,3.08
2022-12-29T09:07:56.443Z,4.25
2022-12-29T09:10:26.721Z,2.45
2022-12-29T09:12:57.019Z,2.83
2022-12-29T09:15:27.233Z,2.10
2022-12-29T09:17:58.157Z,2.38
2022-12-29T09:20:28.408Z,3.50
2022-12-29T09:22:58.770Z,2.08
2022-12-29T09:25:29.349Z,4.03
2022-12-29T09:27:59.673Z,4.60
2022-12-29T09:30:30.100Z,3.28
2022-12-29T09:33:00.429Z,3.00
2022-12-29T09:35:30.659Z,2.78
2022-12-29T09:38:00.865Z,4.53
2022-12-29T09:40:36.792Z,2.55
2022-12-29T09:43:29.745Z,1.65
2022-12-29T09:46:38.147Z,2.78
2022-12-29T09:49:17.534Z,2.10
2022-12-29T09:51:52.687Z,2.00
2022-12-29T09:55:02.989Z,3.70
2022-12-29T09:57:55.596Z,2.22
2022-12-29T10:00:40.712Z,4.75
2022-12-29T10:03:22.978Z,3.10
2022-12-29T10:06:17.229Z,3.78
2022-12-29T10:09:44.963Z,2.22
2022-12-29T10:12:55.919Z,3.17
2022-12-29T10:15:53.149Z,2.38
2022-12-29T10:18:38.218Z,3.78
2022-12-29T10:21:40.060Z,2.60
2022-12-29T10:24:15.072Z,3.60
2022-12-29T10:26:46.988Z,2.17
2022-12-29T10:29:26.875Z,1.63
2022-12-29T10:32:06.233Z,2.97
2022-12-29T10:34:48.204Z,1.48
2022-12-29T10:37:40.875Z,4.22
2022-12-29T10:40:36.922Z,3.03
2022-12-29T10:43:29.443Z,2.55
2022-12-29T10:46:10.283Z,3.53
2022-12-29T10:48:40.566Z,3.83
2022-12-29T10:51:12.115Z,2.50
2022-12-29T10:54:09.747Z,1.98
2022-12-29T10:56:47.613Z,7.85
2022-12-29T10:59:27.187Z,2.28
2022-12-29T11:02:00.642Z,4.25
2022-12-29T11:04:43.015Z,1.70
2022-12-29T11:07:16.331Z,2.45
2022-12-29T11:09:48.475Z,4.38
2022-12-29T11:12:24.850Z,1.50
2022-12-29T11:15:24.260Z,2.97
2022-12-29T11:18:04.613Z,2.28
2022-12-29T11:20:37.456Z,2.80
2022-12-29T11:23:24.595Z,1.73
2022-12-29T11:26:21.439Z,3.45
2022-12-29T11:29:19.751Z,1.60
2022-12-29T11:32:13.271Z,2.47
2022-12-29T11:34:43.679Z,2.20
2022-12-29T11:37:21.725Z,3.15
2022-12-29T11:40:23.154Z,3.40
2022-12-29T11:42:59.048Z,2.05
2022-12-29T11:45:36.412Z,2.45
2022-12-29T11:48:25.684Z,2.08
2022-12-29T11:50:58.711Z,1.85
2022-12-29T11:53:39.370Z,3.92
2022-12-29T11:56:14.311Z,2.15
2022-12-29T11:58:44.556Z,2.70
2022-12-29T12:01:29.952Z,1.65
2022-12-29T12:04:16.130Z,1.85
2022-12-29T12:07:13.229Z,3.72
2022-12-29T12:09:46.420Z,3.20
2022-12-29T12:12:34.267Z,4.43
2022-12-29T12:15:06.876Z,4.40
2022-12-29T12:17:52.156Z,4.57
2022-12-29T12:20:25.417Z,3.38
2022-12-29T12:23:18.101Z,4.68
2022-12-29T12:26:03.580Z,5.10
2022-12-29T12:28:54.843Z,2.55
2022-12-29T12:31:31.735Z,3.65
2022-12-29T12:34:06.396Z,4.70
2022-12-29T12:36:54.215Z,4.28
2022-12-29T12:39:50.632Z,4.15
2022-12-29T12:42:53.847Z,3.97
2022-12-29T12:45:36.001Z,3.05
2022-12-29T12:48:24.336Z,3.30
2022-12-29T12:51:18.846Z,2.95
2022-12-29T12:54:04.058Z,3.70
2022-12-29T12:56:48.357Z,2.08
2022-12-29T12:59:30.592Z,4.10
2022-12-29T13:02:03.676Z,2.83
2022-12-29T13:04:57.104Z,3.35
2022-12-29T13:08:10.176Z,5.07
2022-12-29T13:10:48.507Z,3.70
2022-12-29T13:13:42.602Z,1.70
2022-12-29T13:16:33.723Z,3.10
2022-12-29T13:19:36.160Z,3.03
2022-12-29T13:22:10.851Z,3.05
2022-12-29T13:24:41.254Z,3.95
2022-12-29T13:27:14.202Z,2.53
2022-12-29T13:30:13.545Z,3.05
2022-12-29T13:33:21.601Z,2.30
2022-12-29T13:36:07.097Z,2.00
2022-12-29T13:38:49.691Z,2.45
2022-12-29T13:42:05.181Z,4.03
2022-12-29T13:44:43.999Z,1.95
2022-12-29T13:47:31.340Z,2.20
2022-12-29T13:50:04.405Z,1.83
2022-12-29T13:52:55.735Z,2.15
2022-12-29T13:56:13.165Z,2.60
2022-12-29T13:59:01.015Z,2.38
2022-12-29T14:02:12.274Z,2.50
2022-12-29T14:05:07.027Z,2.75
2022-12-29T14:07:41.882Z,2.33
2022-12-29T14:10:40.662Z,2.60
2022-12-29T14:13:19.720Z,2.80
2022-12-29T14:15:56.976Z,1.67
2022-12-29T14:18:34.176Z,2.40
2022-12-29T14:21:25.280Z,2.55
2022-12-29T14:23:56.643Z,1.88
2022-12-29T14:26:36.377Z,2.25
2022-12-29T14:29:29.327Z,1.83
2022-12-29T14:31:59.564Z,2.38
2022-12-29T14:34:32.876Z,1.60
2022-12-29T14:37:06.499Z,1.65
2022-12-29T14:39:45.711Z,2.00
2022-12-29T14:42:22.246Z,1.55
2022-12-29T14:44:56.374Z,1.58
2022-12-29T14:47:39.010Z,2.13
2022-12-29T14:50:18.200Z,2.58
2022-12-29T14:53:04.621Z,0.98
2022-12-29T14:55:52.570Z,2.28
2022-12-29T14:58:29.342Z,1.23
2022-12-29T15:01:00.486Z,1.50
2022-12-29T15:03:39.047Z,3.42
2022-12-29T15:06:14.041Z,2.10
2022-12-29T15:09:28.573Z,2.08
2022-12-29T15:12:11.093Z,1.92
2022-12-29T15:14:55.068Z,1.23
2022-12-29T15:17:32.421Z,1.42
2022-12-29T15:20:18.715Z,2.47
2022-12-29T15:22:52.451Z,1.90
2022-12-29T15:25:22.914Z,1.48
2022-12-29T15:28:15.257Z,1.35
2022-12-29T15:31:24.897Z,1.50
2022-12-29T15:34:06.234Z,1.83
2022-12-29T15:36:42.122Z,1.73
2022-12-29T15:39:38.232Z,2.42
2022-12-29T15:42:35.534Z,1.40
2022-12-29T15:45:16.449Z,1.63
2022-12-29T15:47:51.390Z,1.08
2022-12-29T15:50:34.673Z,2.90
2022-12-29T15:53:12.344Z,1.27
2022-12-29T15:55:45.317Z,1.65
2022-12-29T15:58:30.586Z,1.45
2022-12-29T16:01:03.633Z,3.13
2022-12-29T16:03:39.565Z,0.82
2022-12-29T16:06:32.336Z,2.30
2022-12-29T16:09:09.266Z,0.90
2022-12-29T16:11:48.652Z,1.23
2022-12-29T16:14:22.008Z,2.05
2022-12-29T16:16:53.742Z,1.52
2022-12-29T16:19:41.453Z,0.80
2022-12-29T16:22:20.391Z,1.55
2022-12-29T16:24:50.952Z,1.50
2022-12-29T16:27:44.338Z,1.33
2022-12-29T16:30:29.394Z,0.85
2022-12-29T16:33:07.182Z,1.10
2022-12-29T16:35:50.118Z,1.27
2022-12-29T16:38:34.238Z,0.80
2022-12-29T16:41:34.039Z,1.25
2022-12-29T16:44:26.350Z,2.30
2022-12-29T16:47:02.072Z,1.27
2022-12-29T16:49:34.801Z,0.88
2022-12-29T16:52:14.768Z,0.75
2022-12-29T16:54:46.121Z,0.77
2022-12-29T16:57:16.402Z,1.40
2022-12-29T16:59:47.025Z,1.75
2022-12-29T17:02:25.155Z,2.50
2022-12-29T17:04:55.963Z,0.57
2022-12-29T17:07:30.820Z,1.08
2022-12-29T17:10:01.249Z,0.70
2022-12-29T17:12:33.415Z,0.85
2022-12-29T17:15:09.204Z,0.93
2022-12-29T17:17:53.305Z,0.90
2022-12-29T17:20:29.540Z,1.27
2022-12-29T17:23:01.073Z,0.77
2022-12-29T17:25:40.273Z,0.80
2022-12-29T17:28:22.832Z,2.08
2022-12-29T17:30:55.467Z,2.70
2022-12-29T17:33:26.178Z,0.75
2022-12-29T17:35:56.723Z,2.03
2022-12-29T17:38:32.238Z,1.65
2022-12-29T17:41:03.057Z,0.77
2022-12-29T17:43:37.014Z,0.63
2022-12-29T17:46:10.818Z,1.75
2022-12-29T17:48:41.080Z,0.95
2022-12-29T17:51:14.156Z,0.75
2022-12-29T17:53:44.413Z,0.47
2022-12-29T17:56:14.686Z,0.98
2022-12-29T17:58:45.371Z,0.95
2022-12-29T18:01:16.114Z,0.95
2022-12-29T18:03:46.400Z,0.77
2022-12-29T18:06:16.948Z,0.73
2022-12-29T18:08:47.243Z,0.70
2022-12-29T18:11:29.113Z,0.95
2022-12-29T18:13:59.657Z,1.13
2022-12-29T18:16:30.366Z,0.43
2022-12-29T18:19:00.603Z,1.30
2022-12-29T18:21:31.155Z,1.77
2022-12-29T18:24:01.346Z,0.70
2022-12-29T18:26:37.272Z,1.27
2022-12-29T18:29:07.518Z,0.45
2022-12-29T18:31:38.532Z,0.63
2022-12-29T18:34:17.683Z,0.95
2022-12-29T18:36:48.197Z,1.15
2022-12-29T18:39:18.410Z,2.17
2022-12-29T18:41:48.828Z,0.80
2022-12-29T18:44:19.330Z,0.55
2022-12-29T18:46:49.994Z,0.68
2022-12-29T18:49:20.295Z,1.23
2022-12-29T18:51:50.699Z,0.80
2022-12-29T18:54:35.034Z,2.47
2022-12-29T18:57:05.304Z,0.63
2022-12-29T18:59:35.556Z,0.80
2022-12-29T19:02:06.102Z,0.75
2022-12-29T19:04:36.346Z,0.40
2022-12-29T19:07:06.843Z,0.75
2022-12-29T19:09:37.124Z,0.60
2022-12-29T19:12:07.886Z,0.45
2022-12-29T19:14:38.053Z,0.50
2022-12-29T19:17:11.256Z,2.45
2022-12-29T19:19:44.810Z,1.10
2022-12-29T19:22:15.341Z,2.58
2022-12-29T19:24:45.620Z,2.97
2022-12-29T19:27:16.551Z,2.17
2022-12-29T19:29:46.795Z,1.02
2022-12-29T19:32:17.409Z,1.73
2022-12-29T19:34:50.412Z,1.83
2022-12-29T19:37:20.901Z,1.50
2022-12-29T19:39:51.229Z,1.65
2022-12-29T19:42:21.713Z,3.53
2022-12-29T19:44:51.909Z,2.10
2022-12-29T19:47:24.618Z,1.23
2022-12-29T19:49:57.845Z,1.20
2022-12-29T19:52:29.936Z,0.50
2022-12-29T19:55:00.391Z,1.65
2022-12-29T19:57:31.460Z,1.88
2022-12-29T20:00:02.007Z,0.57
2022-12-29T20:02:35.455Z,0.65
2022-12-29T20:05:06.083Z,0.90
2022-12-29T20:07:36.978Z,0.50
2022-12-29T20:10:09.404Z,0.80
2022-12-29T20:12:40.628Z,1.35
2022-12-29T20:15:13.197Z,0.55
2022-12-29T20:18:12.670Z,2.30
2022-12-29T20:20:36.718Z,0.50
2022-12-29T20:23:07.451Z,0.40
2022-12-29T20:25:46.399Z,0.50
2022-12-29T20:28:18.620Z,0.40
2022-12-29T20:31:04.272Z,0.30
2022-12-29T20:33:36.573Z,0.60
2022-12-29T20:36:17.126Z,2.15
2022-12-29T20:38:49.713Z,2.22
2022-12-29T20:41:20.732Z,1.75
2022-12-29T20:43:51.375Z,1.95
2022-12-29T20:46:25.256Z,2.22
2022-12-29T20:48:59.000Z,1.85
2022-12-29T20:51:50.734Z,1.33
2022-12-29T20:54:21.455Z,2.90
2022-12-29T20:56:52.251Z,1.73
2022-12-29T20:59:29.915Z,0.95
2022-12-29T21:02:00.684Z,2.75
2022-12-29T21:04:49.961Z,2.25
2022-12-29T21:07:21.235Z,1.20
2022-12-29T21:09:51.571Z,1.67
2022-12-29T21:12:21.862Z,0.47
2022-12-29T21:14:52.337Z,0.95
2022-12-29T21:17:22.686Z,3.13
2022-12-29T21:19:53.136Z,0.50
2022-12-29T21:22:23.474Z,1.80
2022-12-29T21:24:53.839Z,1.55
2022-12-29T21:27:24.244Z,1.13
2022-12-29T21:29:54.536Z,0.82
2022-12-29T21:32:24.785Z,1.77
2022-12-29T21:34:55.122Z,0.85
2022-12-29T21:37:25.312Z,1.85
2022-12-29T21:39:56.200Z,1.27
2022-12-29T21:42:26.449Z,0.90
2022-12-29T21:45:20.199Z,2.83
2022-12-29T21:48:09.192Z,0.77
2022-12-29T21:51:06.071Z,3.22
2022-12-29T21:53:41.986Z,2.90
2022-12-29T21:56:19.960Z,2.75
2022-12-29T21:59:10.741Z,1.02
2022-12-29T22:01:59.593Z,2.15
2022-12-29T22:04:47.602Z,0.73
2022-12-29T22:07:35.722Z,1.20
2022-12-29T22:10:23.677Z,1.40
2022-12-29T22:13:01.851Z,1.73
2022-12-29T22:15:38.988Z,2.40
2022-12-29T22:18:09.288Z,2.38
2022-12-29T22:20:39.932Z,6.22
2022-12-29T22:23:10.504Z,2.83
2022-12-29T22:25:42.675Z,4.15
2022-12-29T22:28:13.751Z,1.52
2022-12-29T22:30:43.946Z,0.60
2022-12-29T22:33:14.693Z,2.67
2022-12-29T22:35:44.929Z,3.40
2022-12-29T22:38:15.664Z,1.95
2022-12-29T22:40:45.871Z,2.63
2022-12-29T22:43:16.500Z,2.80
2022-12-29T22:45:46.793Z,0.70
2022-12-29T22:48:17.522Z,3.22
2022-12-29T22:50:47.809Z,2.92
2022-12-29T22:53:18.384Z,2.35
2022-12-29T22:55:48.565Z,1.95
2022-12-29T22:58:19.034Z,1.45
2022-12-29T23:00:49.267Z,2.90
2022-12-29T23:03:20.518Z,1.63
2022-12-29T23:06:02.105Z,1.85
2022-12-29T23:08:35.848Z,2.47
2022-12-29T23:11:08.264Z,2.45
2022-12-29T23:13:38.630Z,1.30
2022-12-29T23:16:09.093Z,2.63
2022-12-29T23:18:40.128Z,3.85
2022-12-29T23:21:10.911Z,7.80
2022-12-29T23:23:56.566Z,9.65
2022-12-29T23:26:29.976Z,5.72
2022-12-29T23:29:02.714Z,9.70
2022-12-29T23:31:33.986Z,8.23
2022-12-29T23:34:06.080Z,10.45
2022-12-29T23:36:36.670Z,6.40
2022-12-29T23:39:10.354Z,10.30
2022-12-29T23:41:40.608Z,9.18
2022-12-29T23:44:11.582Z,5.28
2022-12-29T23:46:42.673Z,7.85
2022-12-29T23:49:13.361Z,10.68
2022-12-29T23:51:44.150Z,7.80
2022-12-29T23:54:14.613Z,7.75
2022-12-29T23:56:44.824Z,5.70
2022-12-29T23:59:15.147Z,10.05
